createdAt,value
2022-08-04T00:00:43.135Z,100819.03
2022-08-04T00:03:14.842Z,100825.09
2022-08-04T00:05:46.680Z,100822.88
2022-08-04T00:08:18.212Z,100815.19
2022-08-04T00:10:50.118Z,100811.88
2022-08-04T00:13:21.636Z,100811.88
2022-08-04T00:15:53.564Z,100809.97
2022-08-04T00:18:25.102Z,100818.41
2022-08-04T00:20:57.032Z,100812.97
2022-08-04T00:23:28.575Z,100818.72
2022-08-04T00:26:20.404Z,100828.91
2022-08-04T00:28:52.368Z,100817.81
2022-08-04T00:31:54.382Z,100821.63
2022-08-04T00:34:15.716Z,100820.94
2022-08-04T00:36:47.281Z,100821.84
2022-08-04T00:39:20.097Z,100820.72
2022-08-04T00:41:56.536Z,100825.25
2022-08-04T00:44:28.957Z,100817.72
2022-08-04T00:47:00.548Z,100819.22
2022-08-04T00:49:32.397Z,100817.22
2022-08-04T00:52:30.732Z,100816.72
2022-08-04T00:54:55.747Z,100818.78
2022-08-04T00:57:29.877Z,100815.25
2022-08-04T01:00:08.155Z,100816.31
2022-08-04T01:02:39.708Z,100824.16
2022-08-04T01:05:11.579Z,100820.44
2022-08-04T01:07:43.115Z,100817.19
2022-08-04T01:10:17.521Z,100816.06
2022-08-04T01:12:49.364Z,100809.56
2022-08-04T01:15:21.226Z,100811.66
2022-08-04T01:17:52.737Z,100820.19
2022-08-04T01:20:24.569Z,100815.38
2022-08-04T01:22:56.092Z,100815.66
2022-08-04T01:25:27.922Z,100813.75
2022-08-04T01:28:02.721Z,100807.31
2022-08-04T01:30:34.612Z,100815.84
2022-08-04T01:33:06.126Z,100816.97
2022-08-04T01:35:46.903Z,100819.69
2022-08-04T01:38:21.783Z,100816.97
2022-08-04T01:40:54.460Z,100819.69
2022-08-04T01:43:25.979Z,100813.75
2022-08-04T01:45:57.818Z,100814.91
2022-08-04T01:48:29.375Z,100816.69
2022-08-04T01:51:01.242Z,100820.22
2022-08-04T01:53:32.826Z,100821.84
2022-08-04T01:56:04.738Z,100818.66
2022-08-04T01:58:36.297Z,100819.66
2022-08-04T02:01:09.046Z,100818.44
2022-08-04T02:04:18.921Z,100820.94
2022-08-04T02:06:33.558Z,100820.41
2022-08-04T02:09:05.087Z,100813.97
2022-08-04T02:11:36.930Z,100816.69
2022-08-04T02:14:08.469Z,100812.66
2022-08-04T02:16:40.348Z,100814.47
2022-08-04T02:19:14.797Z,100811.47
2022-08-04T02:21:46.867Z,100812.56
2022-08-04T02:24:18.434Z,100808.25
2022-08-04T02:26:50.470Z,100811.25
2022-08-04T02:29:22.017Z,100806.63
2022-08-04T02:31:53.848Z,100797.16
2022-08-04T02:34:25.380Z,100804.59
2022-08-04T02:36:57.457Z,100803.56
2022-08-04T02:39:29.383Z,100800.31
2022-08-04T02:42:01.061Z,100796.09
2022-08-04T02:44:32.914Z,100808.06
2022-08-04T02:47:04.453Z,100799.03
2022-08-04T02:49:36.006Z,100803.50
2022-08-04T02:52:10.191Z,100804.47
2022-08-04T02:54:42.638Z,100798.75
2022-08-04T02:57:14.334Z,100792.22
2022-08-04T02:59:46.413Z,100796.25
2022-08-04T03:02:17.924Z,100796.03
2022-08-04T03:04:49.916Z,100792.81
2022-08-04T03:07:21.652Z,100796.03
2022-08-04T03:09:53.438Z,100782.19
2022-08-04T03:12:24.946Z,100794.72
2022-08-04T03:14:56.836Z,100793.34
2022-08-04T03:17:28.331Z,100792.31
2022-08-04T03:20:00.170Z,100792.91
2022-08-04T03:22:31.670Z,100792.91
2022-08-04T03:25:03.185Z,100787.91
2022-08-04T03:27:34.722Z,100795.00
2022-08-04T03:30:06.618Z,100797.13
2022-08-04T03:32:38.123Z,100795.28
2022-08-04T03:35:10.107Z,100796.97
2022-08-04T03:37:45.111Z,100804.59
2022-08-04T03:40:16.945Z,100803.50
2022-08-04T03:42:48.463Z,100799.16
2022-08-04T03:45:23.965Z,100796.47
2022-08-04T03:47:55.899Z,100807.81
2022-08-04T03:50:28.503Z,100804.84
2022-08-04T03:53:09.144Z,100801.00
2022-08-04T03:55:41.074Z,100800.94
2022-08-04T03:58:12.583Z,100798.47
2022-08-04T04:00:44.413Z,100802.72
2022-08-04T04:03:28.685Z,100798.34
2022-08-04T04:06:02.556Z,100801.03
2022-08-04T04:08:35.424Z,100753.72
2022-08-04T04:11:08.658Z,100805.59
2022-08-04T04:13:40.168Z,100815.34
2022-08-04T04:16:12.925Z,100808.81
2022-08-04T04:18:45.619Z,100800.34
2022-08-04T04:21:17.531Z,100816.06
2022-08-04T04:23:49.016Z,100810.03
2022-08-04T04:26:20.833Z,100810.78
2022-08-04T04:28:52.478Z,100810.19
2022-08-04T04:31:24.468Z,100810.41
2022-08-04T04:33:56.252Z,100814.16
2022-08-04T04:36:29.130Z,100812.69
2022-08-04T04:39:00.662Z,100815.28
2022-08-04T04:41:32.487Z,100816.59
2022-08-04T04:44:03.991Z,100816.25
2022-08-04T04:46:35.800Z,100814.28
2022-08-04T04:49:07.299Z,100814.41
2022-08-04T04:51:39.185Z,100818.00
2022-08-04T04:54:10.700Z,100815.91
2022-08-04T04:56:42.550Z,100819.06
2022-08-04T04:59:15.515Z,100815.16
2022-08-04T05:01:47.816Z,100814.69
2022-08-04T05:04:19.301Z,100811.81
2022-08-04T05:06:54.485Z,100813.53
2022-08-04T05:09:26.355Z,100819.91
2022-08-04T05:11:58.296Z,100819.72
2022-08-04T05:14:34.480Z,100817.31
2022-08-04T05:17:10.881Z,100821.53
2022-08-04T05:19:42.723Z,100820.25
2022-08-04T05:22:14.898Z,100819.53
2022-08-04T05:24:46.788Z,100818.13
2022-08-04T05:27:18.304Z,100828.91
2022-08-04T05:29:50.226Z,100824.88
2022-08-04T05:32:21.732Z,100819.38
2022-08-04T05:34:53.626Z,100821.88
2022-08-04T05:37:25.139Z,100820.91
2022-08-04T05:40:03.555Z,100809.97
2022-08-04T05:42:35.049Z,100824.84
2022-08-04T05:45:06.869Z,100823.53
2022-08-04T05:47:38.464Z,100822.44
2022-08-04T05:50:10.042Z,100826.06
2022-08-04T05:52:41.759Z,100826.47
2022-08-04T05:55:13.250Z,100829.31
2022-08-04T05:58:04.741Z,100807.81
2022-08-04T06:00:41.112Z,100815.63
2022-08-04T06:03:13.215Z,100813.22
2022-08-04T06:05:45.175Z,100817.88
2022-08-04T06:08:16.732Z,100816.47
2022-08-04T06:10:48.589Z,100818.22
2022-08-04T06:13:48.996Z,100817.09
2022-08-04T06:16:17.975Z,100819.66
2022-08-04T06:19:59.745Z,100818.50
2022-08-04T06:21:53.535Z,100825.41
2022-08-04T06:24:25.050Z,100822.22
2022-08-04T06:26:56.902Z,100824.13
2022-08-04T06:29:35.205Z,100815.28
2022-08-04T06:32:33.750Z,100817.31
2022-08-04T06:35:07.457Z,100819.53
2022-08-04T06:37:42.629Z,100821.56
2022-08-04T06:40:31.435Z,100818.16
2022-08-04T06:43:04.271Z,100821.00
2022-08-04T06:45:36.139Z,100818.69
2022-08-04T06:48:07.644Z,100821.69
2022-08-04T06:51:24.503Z,100817.50
2022-08-04T06:53:31.141Z,100817.34
2022-08-04T06:56:03.004Z,100809.09
2022-08-04T06:58:34.516Z,100813.75
2022-08-04T07:01:06.447Z,100813.16
2022-08-04T07:03:37.945Z,100812.84
2022-08-04T07:06:14.271Z,100812.47
2022-08-04T07:08:46.502Z,100816.28
2022-08-04T07:11:18.290Z,100818.41
2022-08-04T07:13:50.212Z,100816.66
2022-08-04T07:16:30.741Z,100813.53
2022-08-04T07:19:09.980Z,100811.66
2022-08-04T07:22:16.040Z,100804.53
2022-08-04T07:24:34.856Z,100806.31
2022-08-04T07:27:07.016Z,100814.59
2022-08-04T07:29:38.600Z,100804.78
2022-08-04T07:32:11.367Z,100802.63
2022-08-04T07:34:42.901Z,100802.94
2022-08-04T07:37:21.947Z,100723.22
2022-08-04T07:40:11.041Z,100803.28
2022-08-04T07:42:42.568Z,100795.53
2022-08-04T07:45:14.432Z,100725.13
2022-08-04T07:48:05.088Z,100799.41
2022-08-04T07:50:38.821Z,100792.66
2022-08-04T07:53:54.978Z,100794.63
2022-08-04T07:56:02.967Z,100798.81
2022-08-04T07:58:34.473Z,100796.13
2022-08-04T08:01:06.348Z,100792.50
2022-08-04T08:03:37.887Z,100797.97
2022-08-04T08:06:31.171Z,100790.03
2022-08-04T08:09:02.254Z,100785.59
2022-08-04T08:12:36.713Z,100782.00
2022-08-04T08:14:37.963Z,100783.09
2022-08-04T08:17:09.470Z,100781.66
2022-08-04T08:19:41.504Z,100779.84
2022-08-04T08:22:13.171Z,100779.34
2022-08-04T08:24:44.959Z,100777.59
2022-08-04T08:27:16.469Z,100776.34
2022-08-04T08:29:48.413Z,100773.75
2022-08-04T08:32:19.917Z,100776.63
2022-08-04T08:34:51.962Z,100769.88
2022-08-04T08:37:23.853Z,100774.09
2022-08-04T08:39:55.928Z,100763.38
2022-08-04T08:42:27.466Z,100768.38
2022-08-04T08:44:59.452Z,100762.06
2022-08-04T08:48:06.291Z,100765.84
2022-08-04T08:50:22.730Z,100764.38
2022-08-04T08:52:57.471Z,100767.22
2022-08-04T08:55:35.484Z,100763.97
2022-08-04T08:58:06.991Z,100757.19
2022-08-04T09:00:40.818Z,100754.88
2022-08-04T09:03:12.359Z,100750.91
2022-08-04T09:05:44.205Z,100749.41
2022-08-04T09:08:15.720Z,100754.22
2022-08-04T09:10:47.557Z,100745.25
2022-08-04T09:13:19.061Z,100752.75
2022-08-04T09:15:54.162Z,100748.19
2022-08-04T09:18:26.059Z,100756.31
2022-08-04T09:20:58.044Z,100754.88
2022-08-04T09:23:29.554Z,100744.13
2022-08-04T09:26:01.631Z,100750.38
2022-08-04T09:28:52.857Z,100747.28
2022-08-04T09:31:24.630Z,100740.66
2022-08-04T09:33:56.161Z,100743.91
2022-08-04T09:36:28.107Z,100740.50
2022-08-04T09:38:59.711Z,100737.41
2022-08-04T09:41:48.469Z,100735.50
2022-08-04T09:44:49.761Z,100740.84
2022-08-04T09:47:12.514Z,100739.28
2022-08-04T09:49:44.668Z,100734.91
2022-08-04T09:52:16.422Z,100743.22
2022-08-04T09:54:48.406Z,100734.84
2022-08-04T09:57:19.919Z,100743.63
2022-08-04T09:59:51.723Z,100744.75
2022-08-04T10:02:23.509Z,100740.47
2022-08-04T10:04:55.710Z,100734.50
2022-08-04T10:07:27.203Z,100731.34
2022-08-04T10:10:00.041Z,100726.16
2022-08-04T10:12:31.818Z,100717.84
2022-08-04T10:15:03.898Z,100719.78
2022-08-04T10:17:35.793Z,100578.97
2022-08-04T10:20:07.651Z,100717.19
2022-08-04T10:22:50.026Z,100715.28
2022-08-04T10:26:03.356Z,100704.94
2022-08-04T10:28:22.724Z,100696.81
2022-08-04T10:30:54.512Z,100697.78
2022-08-04T10:33:26.017Z,100706.75
2022-08-04T10:35:57.885Z,100699.59
2022-08-04T10:38:29.387Z,100704.31
2022-08-04T10:41:01.172Z,100695.44
2022-08-04T10:43:32.664Z,100701.03
2022-08-04T10:46:04.194Z,100693.94
2022-08-04T10:48:35.683Z,100685.09
2022-08-04T10:51:07.632Z,100692.13
2022-08-04T10:53:39.145Z,100692.06
2022-08-04T10:56:10.966Z,100678.00
2022-08-04T10:58:48.082Z,100677.34
2022-08-04T11:02:00.894Z,100671.03
2022-08-04T11:04:12.539Z,100683.66
2022-08-04T11:06:44.514Z,100668.31
2022-08-04T11:09:16.045Z,100663.31
2022-08-04T11:12:00.673Z,100667.47
2022-08-04T11:14:33.448Z,100660.97
2022-08-04T11:17:05.295Z,100660.84
2022-08-04T11:19:45.376Z,100653.91
2022-08-04T11:22:19.511Z,100650.31
2022-08-04T11:24:51.024Z,100659.00
2022-08-04T11:27:23.223Z,100660.31
2022-08-04T11:29:54.879Z,100664.50
2022-08-04T11:32:26.696Z,100658.19
2022-08-04T11:34:58.192Z,100653.88
2022-08-04T11:37:30.283Z,100656.00
2022-08-04T11:40:02.197Z,100655.34
2022-08-04T11:42:33.712Z,100653.28
2022-08-04T11:45:05.797Z,100658.66
2022-08-04T11:47:38.821Z,100662.84
2022-08-04T11:50:10.772Z,100661.31
2022-08-04T11:52:42.350Z,100648.41
2022-08-04T11:55:14.185Z,100650.38
2022-08-04T11:57:45.731Z,100638.41
2022-08-04T12:00:26.175Z,100652.25
2022-08-04T12:02:57.713Z,100650.66
2022-08-04T12:05:36.548Z,100651.91
2022-08-04T12:08:09.123Z,100649.19
2022-08-04T12:10:42.666Z,100644.72
2022-08-04T12:13:14.547Z,100643.47
2022-08-04T12:15:46.365Z,100638.19
2022-08-04T12:18:17.920Z,100635.78
2022-08-04T12:20:50.430Z,100636.41
2022-08-04T12:23:23.084Z,100631.31
2022-08-04T12:25:55.282Z,100632.75
2022-08-04T12:28:28.268Z,100622.44
2022-08-04T12:31:06.220Z,100618.72
2022-08-04T12:34:04.840Z,100616.88
2022-08-04T12:36:33.324Z,100622.56
2022-08-04T12:39:04.875Z,100616.19
2022-08-04T12:41:36.835Z,100615.63
2022-08-04T12:44:36.069Z,100619.13
2022-08-04T12:47:27.039Z,100607.84
2022-08-04T12:49:59.991Z,100610.06
2022-08-04T12:53:00.417Z,100606.38
2022-08-04T12:55:24.994Z,100597.06
2022-08-04T12:57:56.581Z,100606.97
2022-08-04T13:00:31.152Z,100594.81
2022-08-04T13:03:06.299Z,100586.72
2022-08-04T13:05:42.257Z,100587.34
2022-08-04T13:08:13.851Z,100589.06
2022-08-04T13:10:45.720Z,100592.00
2022-08-04T13:13:17.282Z,100584.56
2022-08-04T13:15:56.412Z,100592.56
2022-08-04T13:18:30.292Z,100589.75
2022-08-04T13:21:08.212Z,100584.88
2022-08-04T13:24:10.293Z,100580.88
2022-08-04T13:26:54.656Z,100586.28
2022-08-04T13:29:59.371Z,100577.41
2022-08-04T13:32:18.983Z,100573.72
2022-08-04T13:34:52.402Z,100580.50
2022-08-04T13:37:25.349Z,100573.09
2022-08-04T13:39:57.712Z,100573.09
2022-08-04T13:42:29.272Z,100572.16
2022-08-04T13:45:01.115Z,100579.97
2022-08-04T13:47:33.384Z,100563.75
2022-08-04T13:50:10.814Z,100557.47
2022-08-04T13:52:43.262Z,100558.94
2022-08-04T13:55:15.108Z,100556.31
2022-08-04T13:57:46.632Z,100548.53
2022-08-04T14:00:29.304Z,100549.56
2022-08-04T14:03:02.474Z,100548.19
2022-08-04T14:05:59.838Z,100546.84
2022-08-04T14:08:25.836Z,100544.88
2022-08-04T14:10:58.075Z,100541.34
2022-08-04T14:13:29.598Z,100533.34
2022-08-04T14:16:13.518Z,100531.72
2022-08-04T14:18:45.021Z,100527.31
2022-08-04T14:21:16.875Z,100520.34
2022-08-04T14:23:49.077Z,100526.63
2022-08-04T14:26:20.984Z,100521.75
2022-08-04T14:29:28.517Z,100514.91
2022-08-04T14:31:57.700Z,100514.28
2022-08-04T14:34:31.014Z,100512.56
2022-08-04T14:37:16.862Z,100510.56
2022-08-04T14:40:17.888Z,100507.63
2022-08-04T14:42:41.613Z,100500.44
2022-08-04T14:45:13.713Z,100506.97
2022-08-04T14:47:52.617Z,100503.31
2022-08-04T14:50:25.122Z,100509.34
2022-08-04T14:52:56.616Z,100522.13
2022-08-04T14:55:28.229Z,100517.53
2022-08-04T14:58:36.459Z,100506.38
2022-08-04T15:00:51.789Z,100501.59
2022-08-04T15:03:24.177Z,100502.28
2022-08-04T15:06:02.757Z,100497.28
2022-08-04T15:08:37.206Z,100500.38
2022-08-04T15:11:09.036Z,100491.63
2022-08-04T15:13:40.536Z,100494.03
2022-08-04T15:16:12.050Z,100488.25
2022-08-04T15:18:43.619Z,100477.59
2022-08-04T15:21:22.607Z,100479.88
2022-08-04T15:23:54.489Z,100486.97
2022-08-04T15:26:25.996Z,100485.53
2022-08-04T15:28:57.831Z,100474.34
2022-08-04T15:32:07.329Z,100483.53
2022-08-04T15:34:21.355Z,100478.47
2022-08-04T15:36:57.033Z,100482.19
2022-08-04T15:39:29.417Z,100387.59
2022-08-04T15:42:01.900Z,100471.19
2022-08-04T15:44:33.809Z,100462.72
2022-08-04T15:47:05.400Z,100475.44
2022-08-04T15:49:39.802Z,100472.47
2022-08-04T15:52:12.419Z,100463.69
2022-08-04T15:54:52.634Z,100459.81
2022-08-04T15:57:24.477Z,100463.19
2022-08-04T16:00:00.721Z,100462.81
2022-08-04T16:02:32.295Z,100457.38
2022-08-04T16:05:04.275Z,100462.06
2022-08-04T16:07:53.817Z,100463.81
2022-08-04T16:10:25.592Z,100459.56
2022-08-04T16:12:57.391Z,100457.94
2022-08-04T16:15:29.525Z,100454.63
2022-08-04T16:18:01.021Z,100460.06
2022-08-04T16:20:32.872Z,100455.91
2022-08-04T16:23:04.417Z,100453.31
2022-08-04T16:25:37.673Z,100457.94
2022-08-04T16:28:17.992Z,100454.47
2022-08-04T16:30:49.892Z,100455.69
2022-08-04T16:33:22.830Z,100459.22
2022-08-04T16:35:54.895Z,100450.56
2022-08-04T16:38:42.105Z,100454.50
2022-08-04T16:41:13.768Z,100452.53
2022-08-04T16:43:45.340Z,100448.94
2022-08-04T16:46:21.938Z,100463.19
2022-08-04T16:48:53.620Z,100452.13
2022-08-04T16:51:25.562Z,100453.66
2022-08-04T16:54:04.849Z,100456.09
2022-08-04T16:56:37.228Z,100453.31
2022-08-04T16:59:09.717Z,100448.56
2022-08-04T17:01:41.478Z,100457.69
2022-08-04T17:04:13.383Z,100447.41
2022-08-04T17:06:46.210Z,100452.97
2022-08-04T17:09:17.944Z,100453.38
2022-08-04T17:11:49.452Z,100447.44
2022-08-04T17:14:21.362Z,100450.22
2022-08-04T17:16:52.872Z,100448.63
2022-08-04T17:19:26.338Z,100448.25
2022-08-04T17:22:04.392Z,100447.09
2022-08-04T17:24:38.532Z,100449.03
2022-08-04T17:28:20.582Z,100442.31
2022-08-04T17:30:01.928Z,100443.88
2022-08-04T17:32:33.467Z,100438.75
2022-08-04T17:35:05.446Z,100439.53
2022-08-04T17:37:39.354Z,100451.00
2022-08-04T17:40:13.582Z,100447.84
2022-08-04T17:42:45.719Z,100441.84
2022-08-04T17:48:09.514Z,100446.59
2022-08-04T17:50:43.279Z,100445.78
2022-08-04T17:53:16.983Z,100447.34
2022-08-04T17:55:53.758Z,100450.47
2022-08-04T17:58:28.490Z,100448.09
2022-08-04T18:01:16.551Z,100447.25
2022-08-04T18:06:44.069Z,100445.63
2022-08-04T18:09:23.002Z,100435.69
2022-08-04T18:12:08.203Z,100437.25
2022-08-04T18:14:46.873Z,100440.38
2022-08-04T18:18:19.744Z,100439.09
2022-08-04T18:20:15.405Z,100440.59
2022-08-04T18:22:47.518Z,100439.34
2022-08-04T18:25:20.579Z,100439.66
2022-08-04T18:27:53.708Z,100437.16
2022-08-04T18:30:38.294Z,100442.19
2022-08-04T18:33:40.895Z,100437.38
2022-08-04T18:36:34.973Z,100313.78
2022-08-04T18:39:13.400Z,100428.78
2022-08-04T18:42:01.520Z,100435.81
2022-08-04T18:44:52.180Z,100436.94
2022-08-04T18:47:29.484Z,100439.97
2022-08-04T18:51:01.837Z,100444.63
2022-08-04T18:52:55.691Z,100437.03
2022-08-04T18:55:56.189Z,100446.75
2022-08-04T19:01:13.535Z,100450.84
2022-08-04T19:03:48.224Z,100445.19
2022-08-04T19:06:25.768Z,100447.06
2022-08-04T19:08:57.720Z,100446.56
2022-08-04T19:11:54.442Z,100448.78
2022-08-04T19:14:21.635Z,100457.31
2022-08-04T19:16:54.474Z,100454.41
2022-08-04T19:19:47.747Z,100454.66
2022-08-04T19:22:35.574Z,100457.66
2022-08-04T19:25:09.018Z,100458.72
2022-08-04T19:27:40.611Z,100460.50
2022-08-04T19:30:12.315Z,100461.97
2022-08-04T19:32:48.782Z,100462.63
2022-08-04T19:35:20.730Z,100470.34
2022-08-04T19:37:57.876Z,100468.63
2022-08-04T19:40:34.198Z,100465.38
2022-08-04T19:43:15.255Z,100466.09
2022-08-04T19:45:47.468Z,100468.28
2022-08-04T19:48:20.166Z,100466.09
2022-08-04T19:50:52.382Z,100462.13
2022-08-04T19:53:26.714Z,100471.03
2022-08-04T19:56:09.627Z,100464.59
2022-08-04T19:58:41.971Z,100465.69
2022-08-04T20:01:33.444Z,100464.28
2022-08-04T20:04:11.320Z,100464.94
2022-08-04T20:06:43.552Z,100464.81
2022-08-04T20:09:26.383Z,100467.03
2022-08-04T20:11:59.049Z,100456.66
2022-08-04T20:14:32.639Z,100459.25
2022-08-04T20:17:10.149Z,100458.66
2022-08-04T20:19:42.266Z,100454.50
2022-08-04T20:22:51.665Z,100458.19
2022-08-04T20:25:36.076Z,100454.63
2022-08-04T20:28:06.850Z,100457.56
2022-08-04T20:30:38.663Z,100457.03
2022-08-04T20:33:14.004Z,100454.91
2022-08-04T20:36:05.288Z,100455.50
2022-08-04T20:38:37.391Z,100451.59
2022-08-04T20:41:09.219Z,100454.00
2022-08-04T20:43:40.916Z,100458.03
2022-08-04T20:46:18.019Z,100456.41
2022-08-04T20:48:57.240Z,100461.13
2022-08-04T20:51:31.954Z,100459.63
2022-08-04T20:54:16.558Z,100453.75
2022-08-04T20:56:55.709Z,100458.03
2022-08-04T20:59:31.240Z,100456.41
2022-08-04T21:02:03.184Z,100455.44
2022-08-04T21:04:35.904Z,100456.41
2022-08-04T21:07:08.144Z,100460.28
2022-08-04T21:09:49.868Z,100459.78
2022-08-04T21:12:27.578Z,100454.19
2022-08-04T21:15:13.208Z,100461.63
2022-08-04T21:20:42.346Z,100465.44
2022-08-04T21:23:14.573Z,100477.59
2022-08-04T21:25:51.070Z,100481.66
2022-08-04T21:28:22.594Z,100480.56
2022-08-04T21:30:59.847Z,100486.44
2022-08-04T21:33:50.905Z,100478.72
2022-08-04T21:36:27.316Z,100475.91
2022-08-04T21:38:59.407Z,100480.94
2022-08-04T21:41:31.356Z,100477.19
2022-08-04T21:44:02.927Z,100492.19
2022-08-04T21:46:44.250Z,100495.75
2022-08-04T21:49:16.232Z,100484.75
2022-08-04T21:51:59.954Z,100489.16
2022-08-04T21:54:32.889Z,100486.66
2022-08-04T21:57:04.648Z,100477.63
2022-08-04T21:59:45.212Z,100478.13
2022-08-04T22:02:18.096Z,100481.75
2022-08-04T22:04:51.200Z,100475.47
2022-08-04T22:07:23.691Z,100488.47
2022-08-04T22:10:00.364Z,100494.53
2022-08-04T22:12:34.772Z,100487.81
2022-08-04T22:15:22.793Z,100493.31
2022-08-04T22:18:00.422Z,100487.97
2022-08-04T22:20:36.314Z,100486.44
2022-08-04T22:23:16.964Z,100487.13
2022-08-04T22:25:55.797Z,100476.84
2022-08-04T22:28:28.782Z,100485.97
2022-08-04T22:31:00.903Z,100493.28
2022-08-04T22:33:54.434Z,100488.72
2022-08-04T22:36:27.426Z,100491.91
2022-08-04T22:39:07.016Z,100488.00
2022-08-04T22:42:03.252Z,100488.44
2022-08-04T22:44:32.977Z,100488.13
2022-08-04T22:47:05.056Z,100487.84
2022-08-04T22:49:36.897Z,100488.53
2022-08-04T22:52:12.644Z,100484.03
2022-08-04T22:54:59.136Z,100484.38
2022-08-04T22:57:43.341Z,100480.38
2022-08-04T23:00:28.515Z,100484.47
2022-08-04T23:03:00.628Z,100482.63
2022-08-04T23:05:35.740Z,100478.31
2022-08-04T23:08:07.623Z,100481.72
2022-08-04T23:10:44.026Z,100482.59
2022-08-04T23:13:22.501Z,100480.06
2022-08-04T23:15:55.206Z,100480.53
2022-08-04T23:18:26.924Z,100479.06
2022-08-04T23:20:59.520Z,100473.44
2022-08-04T23:23:31.704Z,100472.53
2022-08-04T23:26:07.697Z,100468.84
2022-08-04T23:28:40.245Z,100463.09
2022-08-04T23:31:12.280Z,100463.31
2022-08-04T23:33:49.389Z,100468.06
2022-08-04T23:36:30.130Z,100466.69
2022-08-04T23:39:04.108Z,100458.97
2022-08-04T23:41:54.562Z,100460.31
2022-08-04T23:44:28.188Z,100373.75
2022-08-04T23:46:59.876Z,100459.72
2022-08-04T23:49:44.138Z,100454.13
2022-08-04T23:52:28.004Z,100456.25
2022-08-04T23:55:02.196Z,100455.34
2022-08-04T23:58:05.712Z,100459.41
